Delphos, Iowa
Current Conditions -  °F | °C
As of 10:53 AM on Thursday 23 Oct 2014 (Local Time) from KLWD Reporting Station
Light Rain Light Rain  
Wind Chill: 15°   Ceiling: 700
Heat Index: 15°   Visibility: 10mi
Dew Point: 13°   Wind: 8mph
Humidity: 90%   Direction: 180°S
Pressure: 30.08"   Gusts: NA
Location:  40.6052°N, 94.3576°W
Report Text: KLWD 231553Z AUTO 18007KT 10SM -RA OVC007 15/13 A3008 RMK AO2 RAB21 CIG 004V011 SLP186 P0000 T01500133
Loading
Personal Weather Stations






























Interactive Weather Map
Tropical Storm Tracking
New forecast layout! Learn more

10-Day Weather Forecast

Advertisements
Track Severe Weather on mobile